sensor_id;sensor_type;location;lat;lon;timestamp;pressure;altitude;pressure_sealevel;temperature;humidity
19624;BME280;9959;49.798;9.928;2023-04-25T00:00:18;98923.88;;;8.43;93.12
19624;BME280;9959;49.798;9.928;2023-04-25T00:02:45;98922.84;;;8.44;92.63
19624;BME280;9959;49.798;9.928;2023-04-25T00:05:13;98921.59;;;8.47;92.34
19624;BME280;9959;49.798;9.928;2023-04-25T00:07:41;98921.59;;;8.47;92.80
19624;BME280;9959;49.798;9.928;2023-04-25T00:10:09;98923.00;;;8.49;92.16
19624;BME280;9959;49.798;9.928;2023-04-25T00:12:37;98926.91;;;8.54;91.95
19624;BME280;9959;49.798;9.928;2023-04-25T00:15:06;98917.63;;;8.49;93.50
19624;BME280;9959;49.798;9.928;2023-04-25T00:17:33;98911.69;;;8.47;92.05
19624;BME280;9959;49.798;9.928;2023-04-25T00:20:01;98914.50;;;8.53;92.49
19624;BME280;9959;49.798;9.928;2023-04-25T00:22:31;98911.69;;;8.47;91.61
19624;BME280;9959;49.798;9.928;2023-04-25T00:25:00;98917.19;;;8.53;91.35
19624;BME280;9959;49.798;9.928;2023-04-25T00:27:27;98903.44;;;8.42;91.20
19624;BME280;9959;49.798;9.928;2023-04-25T00:29:53;98902.41;;;8.43;91.95
19624;BME280;9959;49.798;9.928;2023-04-25T00:32:20;98903.63;;;8.47;91.30
19624;BME280;9959;49.798;9.928;2023-04-25T00:34:47;98902.56;;;8.48;91.93
19624;BME280;9959;49.798;9.928;2023-04-25T00:37:14;98902.56;;;8.48;92.72
19624;BME280;9959;49.798;9.928;2023-04-25T00:39:40;98905.72;;;8.45;93.84
19624;BME280;9959;49.798;9.928;2023-04-25T00:42:08;98909.44;;;8.44;95.24
19624;BME280;9959;49.798;9.928;2023-04-25T00:44:35;98906.59;;;8.33;95.50
19624;BME280;9959;49.798;9.928;2023-04-25T00:47:02;98908.63;;;8.31;94.45
19624;BME280;9959;49.798;9.928;2023-04-25T00:49:30;98905.56;;;8.27;95.83
19624;BME280;9959;49.798;9.928;2023-04-25T00:51:57;98898.53;;;8.26;95.19
19624;BME280;9959;49.798;9.928;2023-04-25T00:54:24;98901.66;;;8.23;95.67
19624;BME280;9959;49.798;9.928;2023-04-25T00:56:52;98893.19;;;8.26;95.73
19624;BME280;9959;49.798;9.928;2023-04-25T00:59:19;98897.94;;;8.24;95.20
19624;BME280;9959;49.798;9.928;2023-04-25T01:01:47;98898.31;;;8.34;94.63
19624;BME280;9959;49.798;9.928;2023-04-25T01:04:14;98888.63;;;8.33;95.51
19624;BME280;9959;49.798;9.928;2023-04-25T01:06:41;98888.22;;;8.30;95.77
19624;BME280;9959;49.798;9.928;2023-04-25T01:09:08;98895.66;;;8.34;94.92
19624;BME280;9959;49.798;9.928;2023-04-25T01:11:36;98893.56;;;8.36;94.32
19624;BME280;9959;49.798;9.928;2023-04-25T01:14:02;98891.31;;;8.33;94.21
19624;BME280;9959;49.798;9.928;2023-04-25T01:16:30;98896.69;;;8.33;93.93
19624;BME280;9959;49.798;9.928;2023-04-25T01:18:57;98897.50;;;8.27;93.87
19624;BME280;9959;49.798;9.928;2023-04-25T01:21:24;98901.41;;;8.31;92.43
19624;BME280;9959;49.798;9.928;2023-04-25T01:23:54;98893.59;;;8.23;93.03
19624;BME280;9959;49.798;9.928;2023-04-25T01:26:22;98896.91;;;8.25;93.80
19624;BME280;9959;49.798;9.928;2023-04-25T01:28:49;98892.66;;;8.11;95.82
19624;BME280;9959;49.798;9.928;2023-04-25T01:31:16;98893.13;;;7.95;99.46
19624;BME280;9959;49.798;9.928;2023-04-25T01:33:45;98892.16;;;7.82;99.04
19624;BME280;9959;49.798;9.928;2023-04-25T01:36:12;98893.41;;;7.80;99.57
19624;BME280;9959;49.798;9.928;2023-04-25T01:38:39;98896.38;;;7.65;98.88
19624;BME280;9959;49.798;9.928;2023-04-25T01:41:06;98896.78;;;7.62;100.00
19624;BME280;9959;49.798;9.928;2023-04-25T01:43:33;98889.78;;;7.61;98.76
19624;BME280;9959;49.798;9.928;2023-04-25T01:46:01;98899.25;;;7.64;99.58
19624;BME280;9959;49.798;9.928;2023-04-25T01:48:27;98888.13;;;7.60;99.27
19624;BME280;9959;49.798;9.928;2023-04-25T01:50:54;98883.38;;;7.62;100.00
19624;BME280;9959;49.798;9.928;2023-04-25T01:53:21;98893.91;;;7.57;98.59
19624;BME280;9959;49.798;9.928;2023-04-25T01:55:49;98890.00;;;7.53;99.78
19624;BME280;9959;49.798;9.928;2023-04-25T01:58:16;98888.16;;;7.47;100.00
19624;BME280;9959;49.798;9.928;2023-04-25T02:00:42;98893.50;;;7.47;100.00
19624;BME280;9959;49.798;9.928;2023-04-25T02:03:09;98893.50;;;7.47;100.00
19624;BME280;9959;49.798;9.928;2023-04-25T02:05:37;98896.81;;;7.42;100.00
19624;BME280;9959;49.798;9.928;2023-04-25T02:08:05;98900.09;;;7.44;100.00
19624;BME280;9959;49.798;9.928;2023-04-25T02:10:33;98890.00;;;7.40;100.00
19624;BME280;9959;49.798;9.928;2023-04-25T02:13:00;98890.63;;;7.42;100.00
19624;BME280;9959;49.798;9.928;2023-04-25T02:15:27;98886.31;;;7.41;100.00
19624;BME280;9959;49.798;9.928;2023-04-25T02:17:54;98890.47;;;7.37;100.00
19624;BME280;9959;49.798;9.928;2023-04-25T02:20:22;98901.75;;;7.39;100.00
19624;BME280;9959;49.798;9.928;2023-04-25T02:22:50;98895.63;;;7.32;100.00
19624;BME280;9959;49.798;9.928;2023-04-25T02:25:18;98896.44;;;7.19;100.00
19624;BME280;9959;49.798;9.928;2023-04-25T02:27:47;98893.97;;;7.18;100.00
19624;BME280;9959;49.798;9.928;2023-04-25T02:30:14;98898.75;;;7.09;100.00
19624;BME280;9959;49.798;9.928;2023-04-25T02:32:41;98897.94;;;7.08;100.00
19624;BME280;9959;49.798;9.928;2023-04-25T02:35:09;98897.94;;;7.08;100.00
19624;BME280;9959;49.798;9.928;2023-04-25T02:37:39;98898.97;;;7.07;100.00
19624;BME280;9959;49.798;9.928;2023-04-25T02:40:06;98897.72;;;7.03;100.00
19624;BME280;9959;49.798;9.928;2023-04-25T02:42:33;98898.13;;;7.00;100.00
19624;BME280;9959;49.798;9.928;2023-04-25T02:45:01;98892.16;;;6.98;100.00
19624;BME280;9959;49.798;9.928;2023-04-25T02:47:28;98893.19;;;6.97;100.00
19624;BME280;9959;49.798;9.928;2023-04-25T02:49:55;98893.59;;;6.94;100.00
19624;BME280;9959;49.798;9.928;2023-04-25T02:52:22;98891.75;;;7.01;100.00
19624;BME280;9959;49.798;9.928;2023-04-25T02:54:49;98897.72;;;6.97;100.00
19624;BME280;9959;49.798;9.928;2023-04-25T02:57:16;98896.28;;;7.01;100.00
19624;BME280;9959;49.798;9.928;2023-04-25T02:59:43;98893.59;;;6.94;100.00
19624;BME280;9959;49.798;9.928;2023-04-25T03:02:10;98894.44;;;7.01;100.00
19624;BME280;9959;49.798;9.928;2023-04-25T03:04:37;98893.41;;;7.02;100.00
19624;BME280;9959;49.798;9.928;2023-04-25T03:07:04;98887.00;;;7.03;100.00
19624;BME280;9959;49.798;9.928;2023-04-25T03:09:31;98890.31;;;7.05;100.00
19624;BME280;9959;49.798;9.928;2023-04-25T03:11:58;98888.44;;;6.99;100.00
19624;BME280;9959;49.798;9.928;2023-04-25T03:14:25;98893.81;;;6.99;100.00
19624;BME280;9959;49.798;9.928;2023-04-25T03:16:51;98894.44;;;7.01;100.00
19624;BME280;9959;49.798;9.928;2023-04-25T03:19:18;98889.47;;;6.98;100.00
19624;BME280;9959;49.798;9.928;2023-04-25T03:21:47;98892.38;;;7.03;100.00
19624;BME280;9959;49.798;9.928;2023-04-25T03:24:14;98898.13;;;7.07;100.00
19624;BME280;9959;49.798;9.928;2023-04-25T03:26:40;98897.09;;;7.01;100.00
19624;BME280;9959;49.798;9.928;2023-04-25T03:29:08;98894.44;;;7.08;100.00
19624;BME280;9959;49.798;9.928;2023-04-25T03:31:34;98892.38;;;7.10;100.00
19624;BME280;9959;49.798;9.928;2023-04-25T03:34:01;98891.09;;;7.12;100.00
19624;BME280;9959;49.798;9.928;2023-04-25T03:36:28;98885.78;;;6.99;100.00
19624;BME280;9959;49.798;9.928;2023-04-25T03:38:55;98887.41;;;7.00;100.00
19624;BME280;9959;49.798;9.928;2023-04-25T03:41:21;98891.13;;;6.99;100.00
19624;BME280;9959;49.798;9.928;2023-04-25T03:43:48;98886.19;;;6.96;100.00
19624;BME280;9959;49.798;9.928;2023-04-25T03:46:15;98884.53;;;6.95;100.00
19624;BME280;9959;49.798;9.928;2023-04-25T03:48:42;98891.13;;;6.93;100.00
19624;BME280;9959;49.798;9.928;2023-04-25T03:51:09;98887.41;;;6.87;100.00
19624;BME280;9959;49.798;9.928;2023-04-25T03:53:37;98895.25;;;6.95;100.00
19624;BME280;9959;49.798;9.928;2023-04-25T03:56:04;98896.06;;;6.89;100.00
19624;BME280;9959;49.798;9.928;2023-04-25T03:58:31;98896.91;;;6.96;100.00
19624;BME280;9959;49.798;9.928;2023-04-25T04:00:58;98896.47;;;6.99;100.00
19624;BME280;9959;49.798;9.928;2023-04-25T04:03:25;98902.25;;;6.96;100.00
19624;BME280;9959;49.798;9.928;2023-04-25T04:05:52;98905.34;;;6.93;100.00
19624;BME280;9959;49.798;9.928;2023-04-25T04:08:19;98895.25;;;6.95;100.00
19624;BME280;9959;49.798;9.928;2023-04-25T04:10:46;98898.53;;;6.97;100.00
19624;BME280;9959;49.798;9.928;2023-04-25T04:13:13;98904.72;;;6.91;100.00
19624;BME280;9959;49.798;9.928;2023-04-25T04:15:40;98907.41;;;7.04;100.00
19624;BME280;9959;49.798;9.928;2023-04-25T04:18:06;98911.72;;;6.99;100.00
19624;BME280;9959;49.798;9.928;2023-04-25T04:20:33;98917.91;;;7.06;100.00
19624;BME280;9959;49.798;9.928;2023-04-25T04:23:01;98912.56;;;7.06;100.00
19624;BME280;9959;49.798;9.928;2023-04-25T04:25:28;98919.56;;;7.07;100.00
19624;BME280;9959;49.798;9.928;2023-04-25T04:27:55;98920.38;;;7.07;100.00
19624;BME280;9959;49.798;9.928;2023-04-25T04:30:22;98917.50;;;7.09;100.00
19624;BME280;9959;49.798;9.928;2023-04-25T04:32:51;98919.56;;;7.07;100.00
19624;BME280;9959;49.798;9.928;2023-04-25T04:35:18;98912.13;;;7.16;100.00
19624;BME280;9959;49.798;9.928;2023-04-25T04:37:45;98922.81;;;7.16;100.00
19624;BME280;9959;49.798;9.928;2023-04-25T04:40:12;98916.69;;;7.08;100.00
19624;BME280;9959;49.798;9.928;2023-04-25T04:42:42;98926.16;;;7.04;100.00
19624;BME280;9959;49.798;9.928;2023-04-25T04:45:10;98918.31;;;7.09;100.00
19624;BME280;9959;49.798;9.928;2023-04-25T04:47:37;98928.84;;;7.11;100.00
19624;BME280;9959;49.798;9.928;2023-04-25T04:50:07;98926.34;;;7.16;100.00
19624;BME280;9959;49.798;9.928;2023-04-25T04:52:36;98922.81;;;7.16;100.00
19624;BME280;9959;49.798;9.928;2023-04-25T04:55:04;98930.69;;;7.10;100.00
19624;BME280;9959;49.798;9.928;2023-04-25T04:57:32;98928.81;;;7.04;100.00
19624;BME280;9959;49.798;9.928;2023-04-25T04:59:59;98934.41;;;7.09;100.00
19624;BME280;9959;49.798;9.928;2023-04-25T05:02:26;98932.75;;;7.02;100.00
19624;BME280;9959;49.798;9.928;2023-04-25T05:04:53;98929.63;;;7.11;100.00
19624;BME280;9959;49.798;9.928;2023-04-25T05:07:20;98936.22;;;7.16;100.00
19624;BME280;9959;49.798;9.928;2023-04-25T05:09:47;98932.31;;;7.11;100.00
19624;BME280;9959;49.798;9.928;2023-04-25T05:12:14;98933.13;;;7.19;100.00
19624;BME280;9959;49.798;9.928;2023-04-25T05:14:41;98935.41;;;7.22;100.00
19624;BME280;9959;49.798;9.928;2023-04-25T05:17:08;98932.72;;;7.22;100.00
19624;BME280;9959;49.798;9.928;2023-04-25T05:19:35;98938.69;;;7.37;100.00
19624;BME280;9959;49.798;9.928;2023-04-25T05:22:02;98943.44;;;7.28;100.00
19624;BME280;9959;49.798;9.928;2023-04-25T05:24:29;98943.84;;;7.32;100.00
19624;BME280;9959;49.798;9.928;2023-04-25T05:26:57;98944.25;;;7.29;100.00
19624;BME280;9959;49.798;9.928;2023-04-25T05:29:25;98945.69;;;7.38;100.00
19624;BME280;9959;49.798;9.928;2023-04-25T05:31:55;98941.34;;;7.50;100.00
19624;BME280;9959;49.798;9.928;2023-04-25T05:34:22;98944.22;;;7.55;100.00
19624;BME280;9959;49.798;9.928;2023-04-25T05:36:49;98945.44;;;7.59;100.00
19624;BME280;9959;49.798;9.928;2023-04-25T05:39:16;98958.25;;;7.57;99.18
19624;BME280;9959;49.798;9.928;2023-04-25T05:41:47;98946.06;;;7.55;98.23
19624;BME280;9959;49.798;9.928;2023-04-25T05:44:14;98952.03;;;7.63;96.70
19624;BME280;9959;49.798;9.928;2023-04-25T05:46:43;98948.69;;;7.74;96.52
19624;BME280;9959;49.798;9.928;2023-04-25T05:49:10;98948.72;;;7.68;95.69
19624;BME280;9959;49.798;9.928;2023-04-25T05:51:37;98954.47;;;7.78;96.30
19624;BME280;9959;49.798;9.928;2023-04-25T05:54:04;98957.34;;;7.76;95.94
19624;BME280;9959;49.798;9.928;2023-04-25T05:56:31;98964.34;;;7.91;94.65
19624;BME280;9959;49.798;9.928;2023-04-25T05:58:58;98960.63;;;7.92;94.22
19624;BME280;9959;49.798;9.928;2023-04-25T06:01:25;98968.91;;;7.84;93.05
19624;BME280;9959;49.798;9.928;2023-04-25T06:03:52;98970.88;;;8.08;92.67
19624;BME280;9959;49.798;9.928;2023-04-25T06:06:20;98975.50;;;7.88;92.39
19624;BME280;9959;49.798;9.928;2023-04-25T06:08:47;98979.56;;;8.03;92.96
19624;BME280;9959;49.798;9.928;2023-04-25T06:11:14;98974.78;;;8.12;91.51
19624;BME280;9959;49.798;9.928;2023-04-25T06:13:50;98982.41;;;8.15;91.86
19624;BME280;9959;49.798;9.928;2023-04-25T06:16:20;98989.25;;;7.98;91.26
19624;BME280;9959;49.798;9.928;2023-04-25T06:18:47;98991.16;;;7.91;89.62
19624;BME280;9959;49.798;9.928;2023-04-25T06:21:15;98978.94;;;8.01;90.74
19624;BME280;9959;49.798;9.928;2023-04-25T06:23:43;98974.59;;;8.07;89.43
19624;BME280;9959;49.798;9.928;2023-04-25T06:26:10;98982.41;;;8.15;87.06
19624;BME280;9959;49.798;9.928;2023-04-25T06:28:37;98984.28;;;8.14;87.36
19624;BME280;9959;49.798;9.928;2023-04-25T06:31:04;98988.53;;;8.35;87.12
19624;BME280;9959;49.798;9.928;2023-04-25T06:33:31;98983.34;;;8.78;86.50
19624;BME280;9959;49.798;9.928;2023-04-25T06:35:58;98977.19;;;8.71;86.68
19624;BME280;9959;49.798;9.928;2023-04-25T06:38:25;98987.06;;;8.77;87.31
19624;BME280;9959;49.798;9.928;2023-04-25T06:40:52;98991.19;;;8.80;86.62
19624;BME280;9959;49.798;9.928;2023-04-25T06:43:19;98999.13;;;8.62;83.85
19624;BME280;9959;49.798;9.928;2023-04-25T06:45:46;98996.78;;;8.27;85.76
19624;BME280;9959;49.798;9.928;2023-04-25T06:48:14;99003.00;;;8.34;85.16
19624;BME280;9959;49.798;9.928;2023-04-25T06:50:40;99000.06;;;8.42;83.90
19624;BME280;9959;49.798;9.928;2023-04-25T06:53:07;98990.75;;;8.83;82.02
19624;BME280;9959;49.798;9.928;2023-04-25T06:55:35;99019.34;;;8.71;81.64
19624;BME280;9959;49.798;9.928;2023-04-25T06:58:02;99003.72;;;8.55;80.01
19624;BME280;9959;49.798;9.928;2023-04-25T07:00:29;99005.97;;;8.58;80.33
19624;BME280;9959;49.798;9.928;2023-04-25T07:02:57;99001.06;;;8.86;80.26
19624;BME280;9959;49.798;9.928;2023-04-25T07:05:24;98994.97;;;8.72;80.08
19624;BME280;9959;49.798;9.928;2023-04-25T07:07:51;99001.00;;;8.61;79.55
19624;BME280;9959;49.798;9.928;2023-04-25T07:10:18;99005.72;;;8.66;78.13
19624;BME280;9959;49.798;9.928;2023-04-25T07:12:45;99010.41;;;9.08;78.18
19624;BME280;9959;49.798;9.928;2023-04-25T07:15:12;99006.16;;;9.01;77.45
19624;BME280;9959;49.798;9.928;2023-04-25T07:17:39;99005.84;;;9.09;77.74
19624;BME280;9959;49.798;9.928;2023-04-25T07:20:06;99011.16;;;8.91;77.38
19624;BME280;9959;49.798;9.928;2023-04-25T07:22:35;99008.13;;;8.80;77.79
19624;BME280;9959;49.798;9.928;2023-04-25T07:25:02;99015.53;;;8.85;77.45
19624;BME280;9959;49.798;9.928;2023-04-25T07:27:31;99010.41;;;9.08;77.28
19624;BME280;9959;49.798;9.928;2023-04-25T07:29:58;98997.19;;;9.07;76.64
19624;BME280;9959;49.798;9.928;2023-04-25T07:32:25;99000.28;;;8.79;77.15
19624;BME280;9959;49.798;9.928;2023-04-25T07:34:52;99004.09;;;8.96;76.74
19624;BME280;9959;49.798;9.928;2023-04-25T07:37:19;99008.16;;;9.05;75.60
19624;BME280;9959;49.798;9.928;2023-04-25T07:39:46;99009.69;;;9.26;74.12
19624;BME280;9959;49.798;9.928;2023-04-25T07:42:13;99008.00;;;9.75;73.67
19624;BME280;9959;49.798;9.928;2023-04-25T07:44:40;99010.75;;;9.68;71.18
19624;BME280;9959;49.798;9.928;2023-04-25T07:47:08;99015.03;;;9.51;72.86
19624;BME280;9959;49.798;9.928;2023-04-25T07:49:36;99017.66;;;10.01;70.87
19624;BME280;9959;49.798;9.928;2023-04-25T07:52:04;99018.72;;;10.55;67.46
19624;BME280;9959;49.798;9.928;2023-04-25T07:54:32;99015.97;;;11.03;65.64
19624;BME280;9959;49.798;9.928;2023-04-25T07:56:59;99003.56;;;11.13;64.84
19624;BME280;9959;49.798;9.928;2023-04-25T07:59:26;99011.00;;;10.88;63.01
19624;BME280;9959;49.798;9.928;2023-04-25T08:01:55;99026.94;;;10.60;65.27
19624;BME280;9959;49.798;9.928;2023-04-25T08:04:24;99011.47;;;11.38;63.97
19624;BME280;9959;49.798;9.928;2023-04-25T08:06:52;99021.69;;;12.18;56.36
19624;BME280;9959;49.798;9.928;2023-04-25T08:09:20;99017.53;;;11.22;54.98
19624;BME280;9959;49.798;9.928;2023-04-25T08:11:48;99019.94;;;12.12;53.24
19624;BME280;9959;49.798;9.928;2023-04-25T08:14:15;99028.28;;;11.75;52.83
19624;BME280;9959;49.798;9.928;2023-04-25T08:16:42;99024.97;;;12.72;50.70
19624;BME280;9959;49.798;9.928;2023-04-25T08:19:09;99040.56;;;13.10;49.34
19624;BME280;9959;49.798;9.928;2023-04-25T08:21:37;99034.31;;;13.38;49.01
19624;BME280;9959;49.798;9.928;2023-04-25T08:24:04;99044.84;;;13.23;48.49
19624;BME280;9959;49.798;9.928;2023-04-25T08:26:31;99041.19;;;12.72;49.74
19624;BME280;9959;49.798;9.928;2023-04-25T08:28:58;99044.84;;;12.66;49.60
19624;BME280;9959;49.798;9.928;2023-04-25T08:31:25;99042.56;;;12.34;49.10
19624;BME280;9959;49.798;9.928;2023-04-25T08:33:52;99046.22;;;12.80;47.21
19624;BME280;9959;49.798;9.928;2023-04-25T08:36:19;99039.78;;;13.43;45.77
19624;BME280;9959;49.798;9.928;2023-04-25T08:39:03;99042.75;;;13.41;45.60
19624;BME280;9959;49.798;9.928;2023-04-25T08:41:30;99049.88;;;12.62;47.57
19624;BME280;9959;49.798;9.928;2023-04-25T08:43:57;99051.13;;;13.73;46.13
19624;BME280;9959;49.798;9.928;2023-04-25T08:46:26;99052.09;;;13.05;46.71
19624;BME280;9959;49.798;9.928;2023-04-25T08:48:57;99055.53;;;13.79;46.72
19624;BME280;9959;49.798;9.928;2023-04-25T08:51:26;99068.72;;;12.57;49.20
19624;BME280;9959;49.798;9.928;2023-04-25T08:54:09;99061.03;;;13.68;46.63
19624;BME280;9959;49.798;9.928;2023-04-25T08:56:57;99075.97;;;13.08;46.82
19624;BME280;9959;49.798;9.928;2023-04-25T08:59:28;99071.66;;;12.56;49.31
19624;BME280;9959;49.798;9.928;2023-04-25T09:01:56;99064.63;;;12.54;49.53
19624;BME280;9959;49.798;9.928;2023-04-25T09:04:23;99069.41;;;14.38;45.16
19624;BME280;9959;49.798;9.928;2023-04-25T09:06:51;99061.03;;;14.01;46.71
19624;BME280;9959;49.798;9.928;2023-04-25T09:09:17;99068.06;;;14.57;44.30
19624;BME280;9959;49.798;9.928;2023-04-25T09:11:44;99066.91;;;14.53;44.24
19624;BME280;9959;49.798;9.928;2023-04-25T09:17:00;99068.50;;;13.77;47.16
19624;BME280;9959;49.798;9.928;2023-04-25T09:19:35;99077.53;;;13.83;46.41
19624;BME280;9959;49.798;9.928;2023-04-25T09:22:07;99076.38;;;14.51;45.01
19624;BME280;9959;49.798;9.928;2023-04-25T09:24:42;99089.66;;;13.47;47.47
19624;BME280;9959;49.798;9.928;2023-04-25T09:27:12;99080.81;;;13.51;47.26
19624;BME280;9959;49.798;9.928;2023-04-25T09:29:40;99098.19;;;12.59;48.11
19624;BME280;9959;49.798;9.928;2023-04-25T09:32:16;99093.97;;;11.69;51.79
19624;BME280;9959;49.798;9.928;2023-04-25T09:34:54;99105.97;;;12.43;49.26
19624;BME280;9959;49.798;9.928;2023-04-25T09:39:59;99106.25;;;12.30;49.62
19624;BME280;9959;49.798;9.928;2023-04-25T09:42:28;99109.97;;;12.06;49.34
19624;BME280;9959;49.798;9.928;2023-04-25T09:44:57;99120.09;;;11.45;51.12
19624;BME280;9959;49.798;9.928;2023-04-25T09:47:25;99118.81;;;11.48;50.57
19624;BME280;9959;49.798;9.928;2023-04-25T09:49:54;99120.78;;;12.17;49.77
19624;BME280;9959;49.798;9.928;2023-04-25T09:52:23;99122.22;;;12.20;49.32
19624;BME280;9959;49.798;9.928;2023-04-25T09:54:51;99114.34;;;12.18;50.18
19624;BME280;9959;49.798;9.928;2023-04-25T09:57:20;99121.03;;;11.93;50.53
19624;BME280;9959;49.798;9.928;2023-04-25T09:59:49;99115.38;;;11.52;50.73
19624;BME280;9959;49.798;9.928;2023-04-25T10:02:18;99131.03;;;11.62;51.01
19624;BME280;9959;49.798;9.928;2023-04-25T10:04:52;99125.81;;;11.49;50.83
19624;BME280;9959;49.798;9.928;2023-04-25T10:07:23;99134.59;;;11.74;50.52
19624;BME280;9959;49.798;9.928;2023-04-25T10:10:00;99136.66;;;11.19;50.31
19624;BME280;9959;49.798;9.928;2023-04-25T10:12:30;99146.84;;;11.59;48.87
19624;BME280;9959;49.798;9.928;2023-04-25T10:15:02;99136.47;;;12.79;47.19
19624;BME280;9959;49.798;9.928;2023-04-25T10:17:29;99135.25;;;12.86;45.74
19624;BME280;9959;49.798;9.928;2023-04-25T10:19:58;99135.75;;;12.83;46.80
19624;BME280;9959;49.798;9.928;2023-04-25T10:22:31;99119.38;;;13.75;45.08
19624;BME280;9959;49.798;9.928;2023-04-25T10:25:00;99134.28;;;13.04;46.39
19624;BME280;9959;49.798;9.928;2023-04-25T10:27:27;99134.38;;;13.21;45.47
19624;BME280;9959;49.798;9.928;2023-04-25T10:30:02;99134.81;;;13.30;45.52
19624;BME280;9959;49.798;9.928;2023-04-25T10:32:33;99131.94;;;13.08;46.08
19624;BME280;9959;49.798;9.928;2023-04-25T10:35:14;99135.44;;;14.32;43.59
19624;BME280;9959;49.798;9.928;2023-04-25T10:38:04;99134.09;;;13.51;45.10
19624;BME280;9959;49.798;9.928;2023-04-25T10:40:34;99131.25;;;14.24;43.26
19624;BME280;9959;49.798;9.928;2023-04-25T10:43:36;99132.91;;;13.59;44.78
19624;BME280;9959;49.798;9.928;2023-04-25T10:46:25;99133.66;;;15.47;41.06
19624;BME280;9959;49.798;9.928;2023-04-25T10:48:59;99143.50;;;15.53;41.54
19624;BME280;9959;49.798;9.928;2023-04-25T10:51:34;99137.09;;;14.33;42.32
19624;BME280;9959;49.798;9.928;2023-04-25T10:54:22;99135.88;;;13.29;44.26
19624;BME280;9959;49.798;9.928;2023-04-25T10:56:50;99145.84;;;12.88;44.84
19624;BME280;9959;49.798;9.928;2023-04-25T10:59:18;99146.81;;;12.70;45.74
19624;BME280;9959;49.798;9.928;2023-04-25T11:01:47;99142.91;;;13.30;45.17
19624;BME280;9959;49.798;9.928;2023-04-25T11:04:45;99157.44;;;13.12;45.68
19624;BME280;9959;49.798;9.928;2023-04-25T11:07:33;99154.53;;;12.90;45.83
19624;BME280;9959;49.798;9.928;2023-04-25T11:10:03;99160.47;;;12.40;46.48
19624;BME280;9959;49.798;9.928;2023-04-25T11:12:31;99158.13;;;12.56;46.49
19624;BME280;9959;49.798;9.928;2023-04-25T11:15:03;99155.97;;;11.88;46.80
19624;BME280;9959;49.798;9.928;2023-04-25T11:17:30;99168.44;;;12.12;45.75
19624;BME280;9959;49.798;9.928;2023-04-25T11:19:57;99163.03;;;11.89;47.58
19624;BME280;9959;49.798;9.928;2023-04-25T11:22:24;99171.75;;;12.14;46.68
19624;BME280;9959;49.798;9.928;2023-04-25T11:24:53;99164.34;;;12.21;46.76
19624;BME280;9959;49.798;9.928;2023-04-25T11:27:20;99170.56;;;12.33;46.98
19624;BME280;9959;49.798;9.928;2023-04-25T11:29:47;99169.53;;;12.58;45.77
19624;BME280;9959;49.798;9.928;2023-04-25T11:32:17;99167.38;;;12.60;45.93
19624;BME280;9959;49.798;9.928;2023-04-25T11:34:46;99158.72;;;12.46;45.61
19624;BME280;9959;49.798;9.928;2023-04-25T11:37:13;99163.53;;;12.56;45.91
19624;BME280;9959;49.798;9.928;2023-04-25T11:39:44;99170.22;;;12.41;46.10
19624;BME280;9959;49.798;9.928;2023-04-25T11:42:12;99173.75;;;12.42;46.41
19624;BME280;9959;49.798;9.928;2023-04-25T11:44:39;99168.72;;;12.22;47.12
19624;BME280;9959;49.798;9.928;2023-04-25T11:47:07;99170.22;;;12.65;45.43
19624;BME280;9959;49.798;9.928;2023-04-25T11:49:35;99178.00;;;12.26;46.40
19624;BME280;9959;49.798;9.928;2023-04-25T11:52:02;99171.88;;;12.42;46.26
19624;BME280;9959;49.798;9.928;2023-04-25T11:54:29;99175.16;;;12.33;46.78
19624;BME280;9959;49.798;9.928;2023-04-25T11:56:56;99173.44;;;13.02;45.22
19624;BME280;9959;49.798;9.928;2023-04-25T11:59:24;99162.31;;;13.38;44.93
19624;BME280;9959;49.798;9.928;2023-04-25T12:01:52;99174.31;;;13.59;43.34
19624;BME280;9959;49.798;9.928;2023-04-25T12:04:23;99170.72;;;13.70;43.30
19624;BME280;9959;49.798;9.928;2023-04-25T12:06:53;99172.88;;;13.40;43.31
19624;BME280;9959;49.798;9.928;2023-04-25T12:09:28;99177.50;;;13.56;43.89
19624;BME280;9959;49.798;9.928;2023-04-25T12:11:57;99189.38;;;12.28;45.30
19624;BME280;9959;49.798;9.928;2023-04-25T12:14:32;99188.38;;;13.04;43.35
19624;BME280;9959;49.798;9.928;2023-04-25T12:17:01;99186.31;;;12.60;43.90
19624;BME280;9959;49.798;9.928;2023-04-25T12:19:36;99185.47;;;13.63;42.24
19624;BME280;9959;49.798;9.928;2023-04-25T12:22:19;99182.56;;;12.26;45.03
19624;BME280;9959;49.798;9.928;2023-04-25T12:24:46;99195.78;;;11.62;46.76
19624;BME280;9959;49.798;9.928;2023-04-25T12:27:15;99207.31;;;11.69;46.81
19624;BME280;9959;49.798;9.928;2023-04-25T12:29:56;99196.22;;;11.59;47.36
19624;BME280;9959;49.798;9.928;2023-04-25T12:32:28;99218.41;;;11.31;48.66
19624;BME280;9959;49.798;9.928;2023-04-25T12:34:55;99211.81;;;11.57;48.30
19624;BME280;9959;49.798;9.928;2023-04-25T12:37:24;99223.84;;;11.43;48.50
19624;BME280;9959;49.798;9.928;2023-04-25T12:39:51;99222.69;;;11.02;50.52
19624;BME280;9959;49.798;9.928;2023-04-25T12:42:18;99224.31;;;11.40;50.25
19624;BME280;9959;49.798;9.928;2023-04-25T12:44:45;99233.44;;;11.39;50.41
19624;BME280;9959;49.798;9.928;2023-04-25T12:47:13;99237.19;;;11.38;50.52
19624;BME280;9959;49.798;9.928;2023-04-25T12:49:40;99242.78;;;12.14;49.13
19624;BME280;9959;49.798;9.928;2023-04-25T12:52:07;99236.78;;;12.01;49.50
19624;BME280;9959;49.798;9.928;2023-04-25T12:54:34;99226.50;;;12.68;48.05
19624;BME280;9959;49.798;9.928;2023-04-25T12:57:02;99233.88;;;12.37;48.65
19624;BME280;9959;49.798;9.928;2023-04-25T12:59:29;99229.31;;;12.61;48.04
19624;BME280;9959;49.798;9.928;2023-04-25T13:01:56;99236.47;;;12.67;47.53
19624;BME280;9959;49.798;9.928;2023-04-25T13:04:23;99234.25;;;12.52;48.11
19624;BME280;9959;49.798;9.928;2023-04-25T13:06:50;99227.16;;;12.98;47.77
19624;BME280;9959;49.798;9.928;2023-04-25T13:09:17;99229.06;;;12.39;48.08
19624;BME280;9959;49.798;9.928;2023-04-25T13:11:44;99240.16;;;12.08;49.09
19624;BME280;9959;49.798;9.928;2023-04-25T13:14:12;99243.34;;;11.75;49.92
19624;BME280;9959;49.798;9.928;2023-04-25T13:16:39;99243.94;;;11.29;50.55
19624;BME280;9959;49.798;9.928;2023-04-25T13:19:06;99250.31;;;11.34;50.63
19624;BME280;9959;49.798;9.928;2023-04-25T13:21:37;99254.28;;;10.95;51.36
19624;BME280;9959;49.798;9.928;2023-04-25T13:24:04;99246.94;;;10.84;52.67
19624;BME280;9959;49.798;9.928;2023-04-25T13:26:31;99254.75;;;10.67;53.46